createdAt,value
2018-07-27T00:01:58.990Z,59.50
2018-07-27T00:09:30.626Z,57.50
2018-07-27T00:12:01.752Z,57.50
2018-07-27T00:14:32.238Z,56.60
2018-07-27T00:17:02.793Z,58.30
2018-07-27T00:19:33.396Z,57.90
2018-07-27T00:22:03.967Z,59.00
2018-07-27T00:24:34.677Z,59.90
2018-07-27T00:27:05.426Z,59.30
2018-07-27T00:32:06.458Z,58.50
2018-07-27T00:34:37.857Z,57.60
2018-07-27T00:37:08.539Z,58.40
2018-07-27T00:39:39.351Z,58.40
2018-07-27T00:42:09.787Z,57.30
2018-07-27T00:44:40.373Z,57.10
2018-07-27T00:47:10.964Z,57.50
2018-07-27T00:49:41.599Z,58.10
2018-07-27T00:54:42.240Z,58.60
2018-07-27T00:57:13.702Z,58.70
2018-07-27T00:59:44.283Z,59.80
2018-07-27T01:02:14.935Z,59.10
2018-07-27T01:04:46.742Z,58.90
2018-07-27T01:07:17.513Z,59.00
2018-07-27T01:09:48.301Z,59.40
2018-07-27T01:12:18.969Z,59.40
2018-07-27T01:14:49.515Z,59.30
2018-07-27T01:17:20.159Z,59.50
2018-07-27T01:19:50.601Z,59.70
2018-07-27T01:22:21.273Z,59.50
2018-07-27T01:24:51.812Z,59.00
2018-07-27T01:27:23.645Z,59.50
2018-07-27T01:29:54.487Z,59.40
2018-07-27T01:32:25.713Z,59.90
2018-07-27T01:34:56.345Z,59.90
2018-07-27T01:37:26.999Z,59.50
2018-07-27T01:39:58.460Z,59.50
2018-07-27T01:42:29.096Z,60.20
2018-07-27T01:44:59.578Z,60.10
2018-07-27T01:47:30.177Z,60.60
2018-07-27T01:50:00.818Z,60.00
2018-07-27T01:52:31.540Z,60.40
2018-07-27T01:55:02.179Z,61.30
2018-07-27T01:57:32.644Z,60.20
2018-07-27T02:00:03.298Z,61.00
2018-07-27T02:02:33.748Z,62.60
2018-07-27T02:05:04.871Z,61.10
2018-07-27T02:07:35.577Z,60.80
2018-07-27T02:10:06.667Z,61.40
2018-07-27T02:12:37.269Z,62.10
2018-07-27T02:15:09.917Z,61.30
2018-07-27T02:17:40.577Z,61.80
2018-07-27T02:20:11.373Z,61.50
2018-07-27T02:22:41.963Z,63.10
2018-07-27T02:27:42.816Z,62.50
2018-07-27T02:30:13.400Z,62.90
2018-07-27T02:32:44.272Z,62.80
2018-07-27T02:35:14.898Z,62.80
2018-07-27T02:37:46.514Z,62.30
2018-07-27T02:40:17.183Z,63.00
2018-07-27T02:42:47.814Z,62.80
2018-07-27T02:45:18.402Z,63.40
2018-07-27T02:47:50.421Z,63.80
2018-07-27T02:50:21.260Z,64.50
2018-07-27T02:52:52.292Z,64.90
2018-07-27T02:55:23.063Z,65.00
2018-07-27T02:57:53.681Z,65.00
2018-07-27T03:00:24.160Z,65.00
2018-07-27T03:02:54.804Z,65.30
2018-07-27T03:05:25.356Z,65.60
2018-07-27T03:10:26.204Z,65.90
2018-07-27T03:12:56.751Z,65.80
2018-07-27T03:15:27.331Z,66.40
2018-07-27T03:17:58.103Z,66.40
2018-07-27T03:20:28.708Z,67.40
2018-07-27T03:23:00.039Z,67.50
2018-07-27T03:25:30.735Z,66.80
2018-07-27T03:28:01.303Z,67.00
2018-07-27T03:30:32.000Z,67.60
2018-07-27T03:33:02.603Z,67.10
2018-07-27T03:35:34.060Z,68.10
2018-07-27T03:40:34.846Z,68.80
2018-07-27T03:43:05.499Z,68.40
2018-07-27T03:45:36.751Z,68.80
2018-07-27T03:48:09.691Z,68.20
2018-07-27T03:50:41.749Z,69.10
2018-07-27T03:53:12.436Z,69.40
2018-07-27T03:55:42.992Z,69.60
2018-07-27T03:58:13.623Z,70.20
2018-07-27T04:00:44.253Z,70.30
2018-07-27T04:03:15.338Z,71.20
2018-07-27T04:05:46.506Z,70.40
2018-07-27T04:08:17.065Z,70.50
2018-07-27T04:10:47.720Z,70.60
2018-07-27T04:13:18.246Z,71.60
2018-07-27T04:18:19.492Z,71.00
2018-07-27T04:20:50.063Z,71.50
2018-07-27T04:23:20.873Z,72.10
2018-07-27T04:25:51.369Z,72.10
2018-07-27T04:28:21.821Z,72.10
2018-07-27T04:30:52.526Z,73.10
2018-07-27T04:33:23.158Z,72.70
2018-07-27T04:35:53.786Z,72.60
2018-07-27T04:38:24.567Z,72.70
2018-07-27T04:40:55.298Z,73.30
2018-07-27T04:43:25.944Z,73.30
2018-07-27T04:45:56.774Z,73.80
2018-07-27T04:48:27.553Z,73.40
2018-07-27T04:50:58.361Z,73.20
2018-07-27T04:53:28.972Z,73.00
2018-07-27T04:55:59.621Z,72.90
2018-07-27T04:58:30.344Z,73.10
2018-07-27T05:01:01.090Z,74.00
2018-07-27T05:03:31.814Z,73.70
2018-07-27T05:08:36.504Z,73.90
2018-07-27T05:11:07.809Z,74.50
2018-07-27T05:16:08.761Z,75.20
2018-07-27T05:21:09.503Z,75.90
2018-07-27T05:23:40.000Z,74.60
2018-07-27T05:26:10.664Z,74.80
2018-07-27T05:28:42.409Z,74.50
2018-07-27T05:31:13.073Z,75.10
2018-07-27T05:33:44.082Z,75.40
2018-07-27T05:36:14.743Z,74.70
2018-07-27T05:38:45.541Z,75.80
2018-07-27T05:41:16.152Z,74.70
2018-07-27T05:43:46.732Z,75.90
2018-07-27T05:46:17.358Z,74.60
2018-07-27T05:48:48.266Z,74.00
2018-07-27T05:51:18.815Z,73.80
2018-07-27T05:53:50.161Z,73.10
2018-07-27T05:56:20.784Z,72.90
2018-07-27T05:58:51.415Z,70.10
2018-07-27T06:01:21.961Z,64.50
2018-07-27T06:03:52.753Z,57.80
2018-07-27T06:06:23.450Z,52.00
2018-07-27T06:08:54.043Z,49.50
2018-07-27T06:11:24.695Z,44.00
2018-07-27T06:13:55.168Z,40.70
2018-07-27T06:16:25.869Z,38.80
2018-07-27T06:18:56.701Z,37.60
2018-07-27T06:21:27.245Z,36.20
2018-07-27T06:23:57.933Z,35.10
2018-07-27T06:26:28.767Z,35.10
2018-07-27T06:29:00.393Z,32.90
2018-07-27T06:31:31.086Z,32.20
2018-07-27T06:34:03.631Z,32.60
2018-07-27T06:36:34.230Z,32.90
2018-07-27T06:39:08.161Z,29.60
2018-07-27T06:41:38.783Z,30.10
2018-07-27T06:44:09.449Z,29.40
2018-07-27T06:46:40.177Z,28.50
2018-07-27T06:49:10.713Z,26.60
2018-07-27T06:51:41.156Z,25.70
2018-07-27T06:54:11.722Z,25.80
2018-07-27T06:56:42.164Z,25.90
2018-07-27T06:59:13.924Z,25.60
2018-07-27T07:01:45.251Z,26.90
2018-07-27T07:04:22.488Z,27.30
2018-07-27T07:06:53.126Z,27.20
2018-07-27T07:09:23.664Z,25.90
2018-07-27T07:11:54.176Z,24.70
2018-07-27T07:14:24.832Z,24.70
2018-07-27T07:16:55.447Z,24.10
2018-07-27T07:19:26.140Z,24.80
2018-07-27T07:21:56.610Z,26.20
2018-07-27T07:24:27.908Z,23.80
2018-07-27T07:26:58.623Z,23.40
2018-07-27T07:29:29.228Z,23.50
2018-07-27T07:32:00.038Z,23.70
2018-07-27T07:34:30.506Z,25.20
2018-07-27T07:37:01.116Z,24.50
2018-07-27T07:39:31.607Z,25.50
2018-07-27T07:42:02.128Z,24.10
2018-07-27T07:44:32.776Z,24.20
2018-07-27T07:47:03.416Z,23.30
2018-07-27T07:49:33.895Z,24.90
2018-07-27T07:52:04.458Z,23.90
2018-07-27T07:54:35.218Z,24.50
2018-07-27T07:57:06.093Z,26.20
2018-07-27T07:59:36.629Z,25.20
2018-07-27T08:02:07.861Z,23.70
2018-07-27T08:04:38.471Z,24.80
2018-07-27T08:07:09.101Z,22.80
2018-07-27T08:09:39.765Z,23.10
2018-07-27T08:12:10.401Z,22.30
2018-07-27T08:14:41.028Z,22.40
2018-07-27T08:17:11.595Z,22.60
2018-07-27T08:19:42.360Z,22.70
2018-07-27T08:22:12.919Z,22.90
2018-07-27T08:24:43.610Z,24.30
2018-07-27T08:27:14.366Z,23.10
2018-07-27T08:29:45.942Z,23.70
2018-07-27T08:32:16.662Z,23.50
2018-07-27T08:34:47.129Z,24.80
2018-07-27T08:37:17.750Z,23.10
2018-07-27T08:39:48.262Z,22.50
2018-07-27T08:42:18.840Z,22.70
2018-07-27T08:44:49.401Z,24.10
2018-07-27T08:47:19.872Z,22.50
2018-07-27T08:49:50.502Z,22.40
2018-07-27T08:52:21.188Z,22.50
2018-07-27T08:54:52.540Z,24.10
2018-07-27T08:57:24.472Z,23.00
2018-07-27T08:59:55.263Z,23.20
2018-07-27T09:02:26.210Z,23.30
2018-07-27T09:04:56.958Z,23.20
2018-07-27T09:07:27.472Z,22.20
2018-07-27T09:09:58.132Z,22.30
2018-07-27T09:12:28.847Z,23.70
2018-07-27T09:14:59.479Z,22.60
2018-07-27T09:17:30.092Z,22.80
2018-07-27T09:20:00.721Z,23.40
2018-07-27T09:22:31.283Z,24.50
2018-07-27T09:25:02.158Z,24.20
2018-07-27T09:27:32.684Z,23.30
2018-07-27T09:30:03.376Z,23.00
2018-07-27T09:32:33.877Z,23.20
2018-07-27T09:35:04.525Z,22.10
2018-07-27T09:37:35.287Z,23.50
2018-07-27T09:40:06.081Z,23.10
2018-07-27T09:42:36.712Z,22.10
2018-07-27T09:45:07.375Z,22.90
2018-07-27T09:47:38.003Z,22.90
2018-07-27T09:50:08.732Z,22.30
2018-07-27T09:52:39.341Z,24.50
2018-07-27T09:55:09.913Z,24.10
2018-07-27T09:57:40.349Z,23.10
2018-07-27T10:00:11.058Z,24.50
2018-07-27T10:02:41.681Z,21.80
2018-07-27T10:05:12.509Z,23.00
2018-07-27T10:07:43.110Z,21.80
2018-07-27T10:10:13.687Z,22.40
2018-07-27T10:12:44.313Z,23.40
2018-07-27T10:15:15.020Z,23.00
2018-07-27T10:17:45.774Z,22.80
2018-07-27T10:20:16.488Z,22.00
2018-07-27T10:22:47.047Z,22.60
2018-07-27T10:25:17.669Z,21.70
2018-07-27T10:27:48.799Z,23.20
2018-07-27T10:30:19.294Z,21.70
2018-07-27T10:32:49.966Z,22.30
2018-07-27T10:35:20.718Z,21.00
2018-07-27T10:37:51.827Z,21.30
2018-07-27T10:40:22.484Z,21.80
2018-07-27T10:42:53.084Z,23.00
2018-07-27T10:45:23.580Z,22.00
2018-07-27T10:47:54.161Z,23.50
2018-07-27T10:50:24.801Z,22.50
2018-07-27T10:52:55.510Z,21.90
2018-07-27T10:57:56.461Z,24.30
2018-07-27T11:00:26.969Z,22.50
2018-07-27T11:02:57.661Z,21.90
2018-07-27T11:05:28.349Z,21.80
2018-07-27T11:07:58.951Z,22.40
2018-07-27T11:10:29.622Z,22.40
2018-07-27T11:13:00.357Z,22.60
2018-07-27T11:15:31.009Z,23.70
2018-07-27T11:18:01.575Z,22.80
2018-07-27T11:20:32.340Z,22.00
2018-07-27T11:23:02.968Z,22.20
2018-07-27T11:25:33.763Z,22.20
2018-07-27T11:28:04.373Z,23.30
2018-07-27T11:30:34.906Z,24.10
2018-07-27T11:33:05.578Z,25.10
2018-07-27T11:35:36.062Z,25.70
2018-07-27T11:38:07.107Z,27.70
2018-07-27T11:40:37.849Z,27.20
2018-07-27T11:43:08.519Z,27.80
2018-07-27T11:45:39.058Z,29.50
2018-07-27T11:48:09.621Z,27.70
2018-07-27T11:50:40.153Z,30.60
2018-07-27T11:53:10.956Z,29.00
2018-07-27T11:55:41.518Z,29.10
2018-07-27T11:58:11.942Z,29.00
2018-07-27T12:03:12.573Z,29.80
2018-07-27T12:05:43.345Z,29.40
2018-07-27T12:08:14.058Z,30.60
2018-07-27T12:13:14.939Z,32.60
2018-07-27T12:15:45.544Z,31.40
2018-07-27T12:18:16.435Z,32.50
2018-07-27T12:20:47.237Z,29.60
2018-07-27T12:23:17.615Z,29.20
2018-07-27T12:25:48.192Z,29.40
2018-07-27T12:28:18.665Z,29.90
2018-07-27T12:30:49.257Z,29.60
2018-07-27T12:33:19.746Z,29.30
2018-07-27T12:35:50.407Z,29.60
2018-07-27T12:38:21.924Z,29.40
2018-07-27T12:40:59.351Z,28.50
2018-07-27T12:43:30.034Z,30.10
2018-07-27T12:46:00.577Z,28.90
2018-07-27T12:48:31.130Z,29.20
2018-07-27T12:51:01.815Z,29.50
2018-07-27T12:53:32.402Z,29.10
2018-07-27T12:56:03.105Z,29.30
2018-07-27T12:58:33.852Z,29.30
2018-07-27T13:01:04.696Z,29.60
2018-07-27T13:03:35.252Z,29.50
2018-07-27T13:06:06.120Z,31.00
2018-07-27T13:08:36.812Z,28.90
2018-07-27T13:11:07.520Z,29.40
2018-07-27T13:13:38.024Z,29.80
2018-07-27T13:16:08.579Z,29.50
2018-07-27T13:18:39.157Z,28.90
2018-07-27T13:21:09.785Z,29.20
2018-07-27T13:24:00.679Z,29.20
2018-07-27T13:26:31.521Z,28.90
2018-07-27T13:29:02.151Z,29.10
2018-07-27T13:31:52.972Z,28.90
2018-07-27T13:34:40.333Z,29.30
2018-07-27T13:37:11.089Z,29.30
2018-07-27T13:39:42.495Z,29.10
2018-07-27T13:42:14.404Z,28.90
2018-07-27T13:44:45.459Z,29.00
2018-07-27T13:47:16.808Z,29.10
2018-07-27T13:49:47.623Z,29.10
2018-07-27T13:52:18.261Z,29.50
2018-07-27T13:54:49.305Z,29.70
2018-07-27T13:57:19.929Z,29.90
2018-07-27T13:59:50.443Z,29.70
2018-07-27T14:02:21.718Z,29.80
2018-07-27T14:04:52.409Z,30.20
2018-07-27T14:07:22.994Z,29.40
2018-07-27T14:09:53.844Z,30.00
2018-07-27T14:12:24.685Z,29.50
2018-07-27T14:14:55.150Z,30.70
2018-07-27T14:17:25.921Z,29.10
2018-07-27T14:19:56.540Z,29.30
2018-07-27T14:22:27.189Z,28.80
2018-07-27T14:24:57.789Z,29.20
2018-07-27T14:27:28.532Z,29.50
2018-07-27T14:29:59.164Z,29.60
2018-07-27T14:35:00.691Z,29.10
2018-07-27T14:37:31.452Z,29.30
2018-07-27T14:42:32.306Z,29.70
2018-07-27T14:45:03.178Z,30.00
2018-07-27T14:47:33.676Z,29.80
2018-07-27T14:50:04.181Z,30.00
2018-07-27T14:52:35.007Z,30.10
2018-07-27T14:55:05.601Z,31.00
2018-07-27T14:57:36.303Z,31.00
2018-07-27T15:00:07.949Z,31.10
2018-07-27T15:02:38.509Z,30.00
2018-07-27T15:05:09.301Z,29.80
2018-07-27T15:07:40.092Z,29.20
2018-07-27T15:10:10.609Z,29.30
2018-07-27T15:12:41.103Z,29.30
2018-07-27T15:15:11.676Z,29.30
2018-07-27T15:17:42.609Z,29.20
2018-07-27T15:20:13.363Z,29.80
2018-07-27T15:22:43.949Z,29.30
2018-07-27T15:25:14.723Z,29.80
2018-07-27T15:27:46.705Z,29.70
2018-07-27T15:30:17.516Z,30.60
2018-07-27T15:32:48.264Z,30.40
2018-07-27T15:35:18.874Z,29.60
2018-07-27T15:37:49.738Z,30.10
2018-07-27T15:40:20.646Z,30.30
2018-07-27T15:42:51.282Z,30.80
2018-07-27T15:47:52.141Z,30.00
2018-07-27T15:50:22.850Z,30.70
2018-07-27T15:52:53.602Z,31.10
2018-07-27T15:55:24.201Z,30.80
2018-07-27T15:57:54.764Z,30.00
2018-07-27T16:00:25.499Z,30.00
2018-07-27T16:02:56.124Z,30.10
2018-07-27T16:05:26.848Z,30.00
2018-07-27T16:07:57.435Z,30.90
2018-07-27T16:10:29.095Z,31.80
2018-07-27T16:13:00.092Z,33.20
2018-07-27T16:15:30.810Z,32.40
2018-07-27T16:18:01.499Z,30.30
2018-07-27T16:20:32.176Z,30.30
2018-07-27T16:23:02.838Z,28.90
2018-07-27T16:25:33.525Z,30.00
2018-07-27T16:28:04.255Z,30.20
2018-07-27T16:30:34.868Z,31.50
2018-07-27T16:33:05.475Z,29.40
2018-07-27T16:35:36.061Z,29.10
2018-07-27T16:38:06.771Z,30.60
2018-07-27T16:40:37.519Z,30.00
2018-07-27T16:43:08.048Z,29.50
2018-07-27T16:45:38.682Z,31.50
2018-07-27T16:48:09.274Z,31.60
2018-07-27T16:50:40.058Z,33.60
2018-07-27T16:53:10.925Z,32.50
2018-07-27T16:55:41.886Z,31.40
2018-07-27T16:58:12.354Z,32.70
2018-07-27T17:00:43.071Z,31.10
2018-07-27T17:03:13.611Z,29.70
2018-07-27T17:05:44.967Z,29.40
2018-07-27T17:08:15.471Z,29.60
2018-07-27T17:10:46.716Z,32.20
2018-07-27T17:13:17.375Z,33.50
2018-07-27T17:15:48.013Z,34.50
2018-07-27T17:18:18.774Z,33.60
2018-07-27T17:20:49.373Z,30.20
2018-07-27T17:23:20.218Z,30.20
2018-07-27T17:25:50.782Z,30.40
2018-07-27T17:28:21.657Z,32.30
2018-07-27T17:30:52.318Z,33.20
2018-07-27T17:33:23.462Z,31.30
2018-07-27T17:35:54.111Z,31.40
2018-07-27T17:38:24.758Z,31.10
2018-07-27T17:40:55.451Z,31.20
2018-07-27T17:43:26.210Z,35.00
2018-07-27T17:45:57.080Z,35.80
2018-07-27T17:48:27.915Z,32.80
2018-07-27T17:50:58.605Z,35.40
2018-07-27T17:53:29.312Z,38.00
2018-07-27T17:55:59.898Z,38.10
2018-07-27T17:58:30.517Z,38.80
2018-07-27T18:01:01.136Z,38.80
2018-07-27T18:03:32.163Z,39.70
2018-07-27T18:06:03.141Z,40.40
2018-07-27T18:08:34.480Z,41.10
2018-07-27T18:11:05.229Z,41.80
2018-07-27T18:13:35.937Z,41.80
2018-07-27T18:16:06.577Z,43.30
2018-07-27T18:18:37.414Z,43.30
2018-07-27T18:21:08.353Z,44.90
2018-07-27T18:23:39.563Z,44.50
2018-07-27T18:26:10.270Z,44.90
2018-07-27T18:28:40.834Z,45.50
2018-07-27T18:31:11.373Z,46.00
2018-07-27T18:33:48.637Z,46.70
2018-07-27T18:36:19.382Z,47.00
2018-07-27T18:38:50.044Z,47.50
2018-07-27T18:41:21.269Z,47.20
2018-07-27T18:43:52.038Z,48.00
2018-07-27T18:46:22.670Z,48.20
2018-07-27T18:48:53.407Z,47.90
2018-07-27T18:51:24.110Z,48.30
2018-07-27T18:53:54.873Z,48.90
2018-07-27T18:56:25.604Z,49.30
2018-07-27T18:58:56.317Z,49.50
2018-07-27T19:03:57.257Z,50.20
2018-07-27T19:06:27.892Z,49.80
2018-07-27T19:08:58.533Z,50.70
2018-07-27T19:11:29.048Z,50.90
2018-07-27T19:13:59.680Z,51.00
2018-07-27T19:16:30.312Z,51.00
2018-07-27T19:19:00.910Z,51.30
2018-07-27T19:21:31.629Z,51.50
2018-07-27T19:24:02.421Z,51.60
2018-07-27T19:31:33.599Z,52.20
2018-07-27T19:36:34.803Z,53.60
2018-07-27T19:39:08.061Z,53.60
2018-07-27T19:41:39.221Z,54.30
2018-07-27T19:44:09.867Z,54.40
2018-07-27T19:46:40.641Z,54.70
2018-07-27T19:49:11.787Z,54.70
2018-07-27T19:51:42.410Z,55.40
2018-07-27T19:54:13.134Z,55.30
2018-07-27T19:56:43.726Z,55.20
2018-07-27T19:59:14.237Z,55.40
2018-07-27T20:04:14.837Z,55.70
2018-07-27T20:06:46.383Z,55.20
2018-07-27T20:09:17.102Z,56.30
2018-07-27T20:11:47.879Z,56.50
2018-07-27T20:14:18.659Z,56.10
2018-07-27T20:16:49.697Z,56.40
2018-07-27T20:19:20.333Z,56.40
2018-07-27T20:21:51.808Z,56.80
2018-07-27T20:24:22.726Z,57.80
2018-07-27T20:26:53.516Z,57.80
2018-07-27T20:29:24.604Z,58.40
2018-07-27T20:31:55.318Z,58.20
2018-07-27T20:34:26.069Z,58.40
2018-07-27T20:36:56.976Z,59.00
2018-07-27T20:39:27.636Z,58.50
2018-07-27T20:41:58.249Z,58.80
2018-07-27T20:52:01.403Z,60.60
2018-07-27T20:57:02.515Z,59.80
2018-07-27T20:59:33.097Z,60.00
2018-07-27T21:04:33.892Z,60.90
2018-07-27T21:07:04.613Z,63.00
2018-07-27T21:09:35.334Z,61.90
2018-07-27T21:12:05.847Z,62.40
2018-07-27T21:17:06.739Z,62.70
2018-07-27T21:19:37.405Z,63.10
2018-07-27T21:24:38.127Z,63.00
2018-07-27T21:27:08.818Z,64.30
2018-07-27T21:29:39.527Z,63.80
2018-07-27T21:32:10.193Z,63.40
2018-07-27T21:34:40.923Z,64.20
2018-07-27T21:37:12.476Z,65.50
2018-07-27T21:39:43.215Z,64.80
2018-07-27T21:42:14.134Z,64.20
2018-07-27T21:44:44.870Z,65.20
2018-07-27T21:49:45.444Z,66.30
2018-07-27T21:52:16.156Z,66.60
2018-07-27T21:54:46.769Z,68.70
2018-07-27T21:57:17.316Z,67.20
2018-07-27T21:59:51.098Z,67.60
2018-07-27T22:02:22.347Z,67.40
2018-07-27T22:07:23.677Z,69.40
2018-07-27T22:09:54.907Z,67.30
2018-07-27T22:12:25.392Z,67.70
2018-07-27T22:14:56.037Z,69.00
2018-07-27T22:19:57.113Z,67.90
2018-07-27T22:22:27.827Z,69.50
2018-07-27T22:27:28.677Z,70.70
2018-07-27T22:29:59.466Z,70.40
2018-07-27T22:32:30.438Z,70.30
2018-07-27T22:35:00.950Z,69.60
2018-07-27T22:37:32.124Z,70.30
2018-07-27T22:40:02.852Z,70.00
2018-07-27T22:42:33.401Z,71.50
2018-07-27T22:47:34.471Z,71.70
2018-07-27T22:50:06.008Z,73.90
2018-07-27T22:52:40.692Z,73.30
2018-07-27T22:55:12.805Z,72.50
2018-07-27T22:57:43.546Z,72.70
2018-07-27T23:00:15.603Z,72.80
2018-07-27T23:02:46.145Z,72.20
2018-07-27T23:05:16.971Z,74.20
2018-07-27T23:07:47.628Z,74.50
2018-07-27T23:10:18.207Z,74.80
2018-07-27T23:12:48.740Z,74.70
2018-07-27T23:15:19.353Z,74.50
2018-07-27T23:17:49.946Z,75.50
2018-07-27T23:20:21.468Z,76.00
2018-07-27T23:25:23.757Z,74.70
2018-07-27T23:30:25.019Z,74.30
2018-07-27T23:32:55.624Z,74.60
2018-07-27T23:35:26.306Z,73.90
2018-07-27T23:37:57.022Z,75.00
2018-07-27T23:45:28.302Z,75.20
2018-07-27T23:47:59.036Z,74.80
2018-07-27T23:50:29.664Z,76.00
2018-07-27T23:53:00.308Z,75.00
2018-07-27T23:55:30.947Z,74.50
2018-07-27T23:58:02.070Z,76.00
